KCEZ/CEZ METAR and TAF weather

Enter ICAO airport designator
Station Type Date Time Source
KCEZ METAR 2022/06/29 23:53 UTC NOAA

KCEZ 292353Z AUTO 23010KT 10SM CLR 32/03 A3018 RMK AO2 SLP139 T03170033 10328 20289 56019


Station Type Date Time Source
KCEZ Decoded METAR 2022/06/29 23:53 UTC NOAA

CORTEZ MONTEZUMA COUNTY AIRPORT , CO, United States (KCEZ) 37-18N 108-38W 1797M
Jun 29, 2022 - 07:53 PM EDT / 2022.06.29 2353 UTC
Wind: from the SW (230 degrees) at 12 MPH (10 KT):0
Visibility: 10 mile(s):0
Sky conditions: clear
Temperature: 89.1 F (31.7 C)
Dew Point: 37.9 F (3.3 C)
Relative Humidity: 16%
Pressure (altimeter): 30.18 in. Hg (1022 hPa)
Pressure tendency: 0.06 inches (1.9 hPa) lower than three hours ago
ob: KCEZ 292353Z AUTO 23010KT 10SM CLR 32/03 A3018 RMK AO2 SLP139 T03170033 10328 20289 56019
cycle: 0

Station Type Date Time Source
KCEZ TAF UTC NOAA

Error!

Example: see airport list